createdAt,value
2018-06-19T00:01:16.164Z,83.30
2018-06-19T00:03:44.845Z,83.20
2018-06-19T00:06:13.150Z,83.50
2018-06-19T00:08:41.351Z,83.60
2018-06-19T00:11:10.369Z,83.60
2018-06-19T00:13:38.539Z,83.20
2018-06-19T00:16:06.777Z,82.50
2018-06-19T00:18:37.556Z,82.70
2018-06-19T00:21:15.538Z,82.70
2018-06-19T00:23:43.926Z,81.60
2018-06-19T00:26:12.307Z,81.10
2018-06-19T00:28:43.045Z,81.20
2018-06-19T00:31:11.385Z,80.90
2018-06-19T00:33:40.014Z,80.60
2018-06-19T00:36:08.638Z,80.90
2018-06-19T00:41:05.110Z,81.10
2018-06-19T00:43:33.761Z,81.20
2018-06-19T00:46:02.309Z,81.20
2018-06-19T00:48:30.685Z,81.40
2018-06-19T00:50:59.161Z,81.70
2018-06-19T00:53:27.706Z,82.30
2018-06-19T00:56:06.094Z,82.40
2018-06-19T00:58:34.441Z,82.80
2018-06-19T01:01:02.705Z,82.70
2018-06-19T01:03:31.032Z,82.40
2018-06-19T01:05:59.466Z,83.40
2018-06-19T01:08:27.709Z,82.70
2018-06-19T01:10:56.018Z,82.80
2018-06-19T01:13:24.627Z,83.00
2018-06-19T01:15:53.294Z,83.50
2018-06-19T01:18:21.832Z,83.50
2018-06-19T01:20:50.163Z,83.70
2018-06-19T01:23:18.495Z,83.80
2018-06-19T01:25:47.136Z,83.90
2018-06-19T01:28:15.524Z,84.10
2018-06-19T01:30:43.861Z,84.20
2018-06-19T01:33:12.462Z,84.30
2018-06-19T01:35:40.942Z,84.00
2018-06-19T01:38:09.564Z,84.20
2018-06-19T01:40:38.037Z,84.20
2018-06-19T01:43:06.609Z,84.30
2018-06-19T01:45:34.884Z,84.30
2018-06-19T01:48:03.207Z,84.30
2018-06-19T01:50:31.514Z,84.50
2018-06-19T01:52:59.872Z,84.40
2018-06-19T01:55:28.736Z,84.50
2018-06-19T01:57:57.023Z,84.60
2018-06-19T02:00:25.376Z,85.00
2018-06-19T02:02:53.695Z,84.90
2018-06-19T02:05:22.504Z,84.90
2018-06-19T02:07:50.788Z,85.10
2018-06-19T02:10:19.120Z,85.10
2018-06-19T02:12:47.470Z,85.30
2018-06-19T02:15:16.027Z,85.40
2018-06-19T02:17:44.708Z,85.80
2018-06-19T02:20:13.082Z,85.80
2018-06-19T02:22:41.371Z,85.50
2018-06-19T02:25:09.722Z,85.70
2018-06-19T02:27:38.213Z,85.50
2018-06-19T02:30:06.531Z,85.60
2018-06-19T02:32:34.907Z,85.50
2018-06-19T02:35:03.244Z,85.10
2018-06-19T02:37:31.882Z,85.20
2018-06-19T02:40:00.381Z,85.00
2018-06-19T02:42:28.716Z,84.80
2018-06-19T02:44:56.964Z,84.80
2018-06-19T02:47:25.322Z,84.70
2018-06-19T02:49:53.722Z,84.70
2018-06-19T02:52:22.144Z,84.70
2018-06-19T02:54:50.482Z,84.80
2018-06-19T02:57:18.778Z,84.70
2018-06-19T03:02:15.189Z,85.50
2018-06-19T03:04:43.495Z,85.00
2018-06-19T03:07:11.799Z,84.70
2018-06-19T03:12:08.379Z,84.50
2018-06-19T03:14:36.980Z,84.30
2018-06-19T03:17:05.291Z,84.20
2018-06-19T03:19:33.568Z,84.00
2018-06-19T03:22:01.881Z,83.90
2018-06-19T03:24:30.386Z,83.50
2018-06-19T03:26:58.714Z,83.30
2018-06-19T03:29:27.017Z,83.60
2018-06-19T03:31:55.364Z,83.50
2018-06-19T03:34:24.282Z,83.70
2018-06-19T03:36:52.596Z,83.50
2018-06-19T03:39:21.098Z,83.70
2018-06-19T03:41:49.761Z,83.60
2018-06-19T03:44:18.045Z,83.60
2018-06-19T03:46:46.360Z,83.90
2018-06-19T03:49:14.653Z,83.80
2018-06-19T03:51:42.961Z,83.80
2018-06-19T03:54:11.301Z,84.00
2018-06-19T03:56:39.846Z,84.00
2018-06-19T03:59:08.092Z,84.20
2018-06-19T04:01:36.268Z,84.20
2018-06-19T04:04:04.507Z,84.10
2018-06-19T04:06:32.893Z,84.00
2018-06-19T04:09:03.016Z,84.20
2018-06-19T04:11:31.491Z,84.10
2018-06-19T04:13:59.716Z,84.00
2018-06-19T04:16:27.917Z,84.10
2018-06-19T04:18:56.140Z,83.80
2018-06-19T04:21:24.420Z,83.60
2018-06-19T04:23:52.688Z,83.50
2018-06-19T04:26:20.918Z,83.50
2018-06-19T04:28:49.359Z,83.20
2018-06-19T04:31:17.589Z,83.10
2018-06-19T04:33:45.814Z,83.30
2018-06-19T04:36:13.974Z,83.20
2018-06-19T04:38:42.171Z,83.20
2018-06-19T04:41:10.385Z,83.40
2018-06-19T04:43:38.577Z,83.40
2018-06-19T04:46:06.774Z,83.40
2018-06-19T04:48:34.975Z,83.50
2018-06-19T04:51:03.156Z,83.70
2018-06-19T04:53:31.370Z,84.00
2018-06-19T04:55:59.580Z,83.70
2018-06-19T04:58:27.789Z,83.90
2018-06-19T05:00:56.024Z,84.00
2018-06-19T05:03:24.212Z,84.10
2018-06-19T05:05:52.509Z,84.40
2018-06-19T05:08:20.757Z,84.10
2018-06-19T05:10:48.917Z,84.00
2018-06-19T05:13:17.214Z,84.20
2018-06-19T05:15:45.421Z,84.30
2018-06-19T05:18:13.725Z,84.20
2018-06-19T05:20:41.971Z,84.00
2018-06-19T05:23:10.217Z,85.10
2018-06-19T05:25:38.492Z,84.30
2018-06-19T05:28:06.676Z,84.60
2018-06-19T05:30:34.935Z,84.70
2018-06-19T05:33:03.154Z,84.50
2018-06-19T05:35:31.376Z,84.50
2018-06-19T05:37:59.572Z,85.00
2018-06-19T05:40:27.730Z,85.10
2018-06-19T05:42:55.900Z,85.40
2018-06-19T05:45:24.092Z,85.30
2018-06-19T05:47:52.276Z,85.10
2018-06-19T05:50:20.472Z,85.00
2018-06-19T05:52:48.658Z,85.20
2018-06-19T05:55:16.850Z,85.30
2018-06-19T05:57:45.034Z,85.50
2018-06-19T06:00:13.244Z,86.60
2018-06-19T06:02:41.415Z,85.50
2018-06-19T06:05:09.574Z,85.90
2018-06-19T06:07:37.757Z,85.80
2018-06-19T06:10:05.963Z,86.00
2018-06-19T06:12:34.127Z,86.00
2018-06-19T06:15:02.297Z,86.00
2018-06-19T06:19:58.393Z,86.20
2018-06-19T06:22:26.557Z,86.00
2018-06-19T06:24:55.194Z,86.30
2018-06-19T06:27:23.388Z,86.10
2018-06-19T06:29:51.570Z,86.10
2018-06-19T06:34:47.713Z,86.50
2018-06-19T06:37:15.917Z,86.70
2018-06-19T06:39:44.137Z,87.00
2018-06-19T06:42:12.313Z,87.70
2018-06-19T06:44:40.501Z,88.80
2018-06-19T06:47:09.121Z,89.60
2018-06-19T06:49:37.317Z,89.60
2018-06-19T06:52:05.614Z,90.00
2018-06-19T06:54:35.487Z,90.50
2018-06-19T06:57:03.670Z,90.50
2018-06-19T06:59:31.985Z,91.20
2018-06-19T07:02:00.174Z,90.90
2018-06-19T07:04:28.699Z,91.00
2018-06-19T07:06:56.865Z,91.10
2018-06-19T07:09:25.157Z,91.00
2018-06-19T07:11:53.306Z,91.50
2018-06-19T07:14:21.467Z,91.50
2018-06-19T07:16:49.885Z,91.20
2018-06-19T07:19:18.135Z,91.60
2018-06-19T07:21:46.318Z,91.60
2018-06-19T07:24:14.512Z,90.70
2018-06-19T07:26:42.677Z,90.40
2018-06-19T07:29:10.907Z,90.60
2018-06-19T07:31:39.142Z,90.60
2018-06-19T07:34:07.339Z,90.30
2018-06-19T07:36:35.509Z,90.20
2018-06-19T07:39:05.413Z,90.20
2018-06-19T07:41:33.587Z,90.30
2018-06-19T07:44:01.826Z,89.40
2018-06-19T07:46:30.874Z,89.70
2018-06-19T07:48:59.076Z,89.00
2018-06-19T07:51:27.227Z,88.00
2018-06-19T07:53:55.419Z,87.80
2018-06-19T07:56:23.590Z,88.20
2018-06-19T07:58:51.799Z,88.10
2018-06-19T08:01:20.113Z,88.10
2018-06-19T08:03:48.333Z,88.20
2018-06-19T08:06:16.521Z,88.00
2018-06-19T08:08:44.747Z,87.40
2018-06-19T08:11:12.919Z,86.90
2018-06-19T08:13:41.094Z,87.20
2018-06-19T08:16:09.314Z,87.40
2018-06-19T08:18:37.525Z,87.70
2018-06-19T08:21:05.961Z,87.70
2018-06-19T08:23:34.178Z,87.40
2018-06-19T08:26:02.390Z,88.20
2018-06-19T08:28:30.576Z,88.40
2018-06-19T08:30:58.766Z,87.90
2018-06-19T08:33:26.921Z,88.50
2018-06-19T08:35:55.106Z,89.50
2018-06-19T08:38:23.378Z,88.90
2018-06-19T08:40:51.541Z,89.50
2018-06-19T08:43:19.689Z,90.50
2018-06-19T08:45:47.889Z,90.80
2018-06-19T08:48:16.057Z,91.10
2018-06-19T08:50:44.221Z,91.40
2018-06-19T08:53:12.392Z,92.00
2018-06-19T08:55:40.594Z,91.70
2018-06-19T08:58:08.790Z,92.30
2018-06-19T09:00:37.007Z,91.10
2018-06-19T09:03:05.472Z,91.40
2018-06-19T09:05:33.665Z,91.60
2018-06-19T09:08:01.851Z,92.00
2018-06-19T09:10:30.025Z,91.80
2018-06-19T09:12:58.209Z,92.80
2018-06-19T09:15:26.394Z,92.20
2018-06-19T09:17:54.549Z,92.30
2018-06-19T09:20:22.781Z,91.50
2018-06-19T09:22:51.036Z,91.20
2018-06-19T09:25:19.231Z,90.80
2018-06-19T09:27:47.399Z,90.70
2018-06-19T09:30:15.649Z,90.30
2018-06-19T09:32:43.838Z,90.50
2018-06-19T09:35:12.142Z,90.20
2018-06-19T09:37:40.379Z,90.50
2018-06-19T09:40:08.569Z,90.00
2018-06-19T09:42:36.808Z,89.20
2018-06-19T09:45:05.054Z,89.20
2018-06-19T09:47:33.255Z,90.10
2018-06-19T09:50:01.450Z,88.90
2018-06-19T09:52:29.655Z,87.40
2018-06-19T09:54:57.835Z,87.70
2018-06-19T09:57:25.998Z,86.90
2018-06-19T09:59:54.192Z,85.80
2018-06-19T10:02:22.374Z,85.60
2018-06-19T10:04:50.529Z,84.80
2018-06-19T10:07:21.015Z,85.60
2018-06-19T10:09:50.422Z,85.40
2018-06-19T10:12:18.677Z,86.30
2018-06-19T10:14:46.869Z,86.10
2018-06-19T10:17:15.057Z,86.00
2018-06-19T10:19:43.936Z,86.40
2018-06-19T10:22:12.128Z,86.90
2018-06-19T10:24:40.305Z,86.70
2018-06-19T10:27:08.452Z,86.80
2018-06-19T10:29:36.636Z,86.40
2018-06-19T10:32:04.913Z,86.70
2018-06-19T10:34:33.074Z,86.20
2018-06-19T10:37:01.281Z,86.30
2018-06-19T10:39:29.485Z,85.60
2018-06-19T10:41:57.638Z,86.00
2018-06-19T10:44:25.796Z,85.20
2018-06-19T10:46:53.969Z,85.10
2018-06-19T10:49:22.144Z,85.00
2018-06-19T10:51:50.340Z,85.00
2018-06-19T10:54:18.523Z,85.10
2018-06-19T10:56:46.677Z,85.10
2018-06-19T10:59:14.849Z,85.50
2018-06-19T11:01:43.016Z,85.50
2018-06-19T11:06:39.129Z,84.40
2018-06-19T11:09:09.053Z,84.30
2018-06-19T11:11:37.204Z,84.30
2018-06-19T11:14:05.459Z,84.00
2018-06-19T11:16:33.591Z,84.70
2018-06-19T11:19:01.747Z,83.90
2018-06-19T11:21:29.978Z,82.00
2018-06-19T11:23:58.192Z,82.00
2018-06-19T11:26:26.333Z,82.10
2018-06-19T11:28:54.565Z,82.10
2018-06-19T11:31:22.697Z,81.80
2018-06-19T11:33:50.866Z,81.60
2018-06-19T11:36:19.034Z,81.00
2018-06-19T11:38:47.217Z,81.00
2018-06-19T11:41:15.390Z,81.50
2018-06-19T11:43:43.561Z,81.50
2018-06-19T11:46:11.853Z,81.60
2018-06-19T11:48:40.025Z,81.00
2018-06-19T11:51:08.301Z,81.50
2018-06-19T11:53:36.503Z,81.20
2018-06-19T11:56:04.681Z,80.40
2018-06-19T11:58:32.887Z,79.50
2018-06-19T12:01:01.082Z,79.00
2018-06-19T12:03:29.262Z,79.10
2018-06-19T12:05:57.469Z,77.80
2018-06-19T12:08:25.641Z,75.60
2018-06-19T12:10:53.756Z,74.30
2018-06-19T12:13:21.929Z,73.50
2018-06-19T12:15:51.670Z,73.80
2018-06-19T12:18:20.089Z,72.00
2018-06-19T12:20:48.619Z,70.20
2018-06-19T12:23:16.794Z,69.40
2018-06-19T12:25:44.973Z,68.50
2018-06-19T12:28:14.908Z,69.30
2018-06-19T12:30:43.159Z,68.10
2018-06-19T12:33:11.394Z,67.20
2018-06-19T12:35:39.636Z,67.40
2018-06-19T12:38:07.870Z,67.20
2018-06-19T12:40:36.148Z,68.50
2018-06-19T12:43:04.623Z,68.40
2018-06-19T12:45:32.772Z,68.90
2018-06-19T12:48:00.977Z,70.00
2018-06-19T12:50:41.501Z,70.80
2018-06-19T12:53:21.411Z,69.60
2018-06-19T12:56:01.710Z,68.10
2018-06-19T12:58:30.143Z,68.60
2018-06-19T13:00:58.864Z,68.00
2018-06-19T13:03:38.431Z,67.10
2018-06-19T13:06:17.994Z,66.40
2018-06-19T13:08:46.265Z,67.20
2018-06-19T13:11:14.588Z,68.90
2018-06-19T13:13:54.100Z,69.30
2018-06-19T13:16:33.419Z,69.30
2018-06-19T13:19:12.923Z,69.90
2018-06-19T13:21:42.220Z,71.50
2018-06-19T13:24:10.437Z,71.70
2018-06-19T13:26:38.701Z,70.70
2018-06-19T13:29:51.005Z,71.20
2018-06-19T13:32:19.192Z,73.80
2018-06-19T13:34:47.407Z,73.90
2018-06-19T13:37:15.623Z,72.20
2018-06-19T13:42:23.736Z,71.70
2018-06-19T13:44:58.493Z,71.10
2018-06-19T13:47:26.782Z,70.70
2018-06-19T13:49:54.969Z,71.70
2018-06-19T13:52:23.231Z,70.80
2018-06-19T13:54:51.487Z,70.40
2018-06-19T13:57:32.429Z,71.40
2018-06-19T14:00:02.734Z,70.20
2018-06-19T14:02:30.974Z,69.40
2018-06-19T14:04:59.501Z,69.40
2018-06-19T14:07:28.765Z,69.50
2018-06-19T14:13:01.580Z,71.40
2018-06-19T14:15:32.452Z,68.70
2018-06-19T14:18:00.721Z,68.10
2018-06-19T14:20:29.196Z,67.70
2018-06-19T14:22:57.419Z,67.50
2018-06-19T14:25:25.677Z,68.10
2018-06-19T14:27:53.960Z,66.10
2018-06-19T14:30:22.129Z,65.10
2018-06-19T14:32:50.347Z,63.30
2018-06-19T14:35:18.708Z,64.20
2018-06-19T14:37:46.903Z,64.50
2018-06-19T14:40:15.574Z,63.30
2018-06-19T14:42:43.735Z,62.50
2018-06-19T14:45:12.190Z,62.30
2018-06-19T14:47:40.600Z,61.90
2018-06-19T14:50:08.814Z,63.30
2018-06-19T14:52:37.043Z,62.70
2018-06-19T14:55:05.882Z,62.90
2018-06-19T14:57:34.144Z,63.90
2018-06-19T15:00:02.336Z,63.50
2018-06-19T15:02:30.542Z,63.70
2018-06-19T15:05:01.768Z,64.10
2018-06-19T15:07:35.165Z,65.00
2018-06-19T15:10:03.360Z,63.80
2018-06-19T15:12:31.492Z,64.50
2018-06-19T15:14:59.682Z,66.10
2018-06-19T15:17:27.876Z,65.50
2018-06-19T15:19:56.046Z,64.60
2018-06-19T15:22:24.260Z,64.80
2018-06-19T15:24:52.449Z,65.50
2018-06-19T15:27:20.621Z,64.90
2018-06-19T15:29:48.808Z,64.80
2018-06-19T15:32:16.953Z,64.10
2018-06-19T15:34:45.133Z,64.20
2018-06-19T15:37:13.332Z,63.20
2018-06-19T15:39:41.511Z,62.50
2018-06-19T15:42:09.726Z,63.90
2018-06-19T15:44:38.035Z,64.30
2018-06-19T15:47:06.223Z,65.40
2018-06-19T15:49:34.376Z,64.90
2018-06-19T15:52:02.613Z,65.60
2018-06-19T15:54:30.815Z,66.70
2018-06-19T15:56:58.980Z,65.90
2018-06-19T15:59:27.163Z,66.40
2018-06-19T16:01:55.458Z,66.20
2018-06-19T16:04:23.623Z,65.40
2018-06-19T16:06:51.815Z,65.80
2018-06-19T16:09:19.977Z,65.70
2018-06-19T16:11:48.182Z,65.80
2018-06-19T16:14:16.430Z,65.50
2018-06-19T16:16:44.641Z,66.20
2018-06-19T16:19:12.810Z,66.90
2018-06-19T16:21:40.969Z,67.40
2018-06-19T16:24:09.182Z,66.50
2018-06-19T16:26:37.355Z,66.40
2018-06-19T16:29:05.526Z,66.70
2018-06-19T16:31:35.067Z,66.30
2018-06-19T16:34:03.250Z,65.90
2018-06-19T16:36:31.499Z,66.00
2018-06-19T16:38:59.673Z,65.40
2018-06-19T16:41:27.837Z,66.30
2018-06-19T16:43:56.037Z,66.60
2018-06-19T16:46:24.292Z,65.10
2018-06-19T16:48:52.445Z,65.30
2018-06-19T16:51:20.605Z,66.30
2018-06-19T16:53:48.864Z,66.80
2018-06-19T16:56:20.587Z,67.50
2018-06-19T16:58:48.746Z,68.10
2018-06-19T17:01:16.906Z,68.70
2018-06-19T17:03:45.324Z,68.20
2018-06-19T17:06:13.469Z,68.80
2018-06-19T17:08:41.638Z,69.20
2018-06-19T17:11:09.816Z,69.80
2018-06-19T17:13:37.999Z,70.60
2018-06-19T17:16:06.148Z,70.90
2018-06-19T17:18:34.938Z,71.40
2018-06-19T17:21:04.138Z,71.80
2018-06-19T17:23:32.296Z,72.10
2018-06-19T17:26:00.523Z,72.50
2018-06-19T17:28:28.700Z,72.30
2018-06-19T17:30:56.865Z,72.20
2018-06-19T17:33:25.011Z,72.70
2018-06-19T17:35:53.186Z,72.80
2018-06-19T17:40:49.352Z,72.90
2018-06-19T17:43:17.477Z,73.70
2018-06-19T17:45:45.655Z,73.20
2018-06-19T17:48:13.852Z,73.70
2018-06-19T17:50:42.067Z,73.50
2018-06-19T17:53:10.254Z,73.80
2018-06-19T17:55:38.437Z,73.80
2018-06-19T17:58:06.614Z,74.20
2018-06-19T18:00:34.942Z,74.70
2018-06-19T18:03:03.384Z,75.00
2018-06-19T18:05:31.626Z,75.10
2018-06-19T18:07:59.882Z,76.30
2018-06-19T18:10:28.052Z,76.20
2018-06-19T18:12:56.247Z,75.30
2018-06-19T18:15:24.436Z,75.10
2018-06-19T18:17:52.610Z,75.10
2018-06-19T18:20:20.807Z,74.90
2018-06-19T18:22:51.382Z,75.70
2018-06-19T18:25:19.544Z,75.00
2018-06-19T18:27:48.478Z,75.00
2018-06-19T18:30:16.685Z,75.20
2018-06-19T18:32:44.874Z,76.50
2018-06-19T18:35:13.088Z,75.90
2018-06-19T18:37:41.260Z,76.20
2018-06-19T18:40:09.441Z,76.50
2018-06-19T18:42:37.608Z,76.60
2018-06-19T18:45:05.810Z,76.80
2018-06-19T18:47:34.037Z,77.80
2018-06-19T18:50:02.201Z,77.20
2018-06-19T18:52:30.396Z,77.90
2018-06-19T18:54:58.591Z,77.90
2018-06-19T18:57:26.818Z,78.00
2018-06-19T18:59:55.019Z,78.30
2018-06-19T19:02:23.306Z,78.30
2018-06-19T19:04:52.246Z,79.60
2018-06-19T19:07:20.385Z,78.80
2018-06-19T19:09:53.980Z,78.90
2018-06-19T19:12:22.148Z,79.20
2018-06-19T19:14:55.860Z,79.60
2018-06-19T19:17:29.564Z,79.50
2018-06-19T19:19:57.786Z,79.40
2018-06-19T19:22:28.491Z,79.60
2018-06-19T19:24:56.696Z,79.70
2018-06-19T19:27:30.233Z,79.70
2018-06-19T19:30:01.056Z,79.90
2018-06-19T19:32:29.711Z,80.10
2018-06-19T19:34:58.516Z,80.10
2018-06-19T19:37:32.316Z,80.30
2018-06-19T19:40:00.623Z,80.40
2018-06-19T19:42:28.879Z,80.50
2018-06-19T19:44:57.195Z,80.70
2018-06-19T19:47:30.599Z,80.90
2018-06-19T19:49:58.969Z,81.10
2018-06-19T19:52:27.206Z,81.60
2018-06-19T19:54:55.472Z,81.70
2018-06-19T19:57:28.941Z,81.60
2018-06-19T19:59:57.215Z,82.00
2018-06-19T20:02:26.413Z,82.30
2018-06-19T20:04:54.699Z,83.40
2018-06-19T20:07:22.975Z,84.90
2018-06-19T20:09:51.274Z,83.90
2018-06-19T20:12:19.801Z,84.50
2018-06-19T20:14:48.064Z,84.50
2018-06-19T20:17:16.611Z,85.40
2018-06-19T20:19:44.893Z,85.70
2018-06-19T20:22:13.113Z,85.00
2018-06-19T20:24:41.348Z,84.60
2018-06-19T20:27:09.581Z,84.50
2018-06-19T20:29:37.884Z,84.50
2018-06-19T20:32:06.558Z,84.30
2018-06-19T20:34:34.823Z,84.30
2018-06-19T20:37:03.115Z,84.80
2018-06-19T20:39:31.347Z,84.40
2018-06-19T20:41:59.611Z,84.80
2018-06-19T20:44:27.852Z,84.30
2018-06-19T20:46:56.163Z,83.80
2018-06-19T20:49:24.553Z,84.40
2018-06-19T20:54:20.763Z,84.10
2018-06-19T20:56:49.620Z,84.20
2018-06-19T20:59:17.859Z,84.90
2018-06-19T21:01:46.107Z,84.90
2018-06-19T21:04:14.360Z,85.20
2018-06-19T21:06:42.616Z,84.60
2018-06-19T21:09:10.889Z,84.70
2018-06-19T21:11:39.102Z,85.30
2018-06-19T21:14:07.351Z,85.20
2018-06-19T21:16:35.611Z,85.40
2018-06-19T21:19:03.883Z,85.50
2018-06-19T21:21:32.163Z,85.70
2018-06-19T21:24:00.418Z,85.40
2018-06-19T21:26:28.675Z,85.40
2018-06-19T21:28:56.967Z,86.00
2018-06-19T21:31:25.255Z,86.70
2018-06-19T21:33:53.606Z,86.30
2018-06-19T21:36:21.839Z,86.20
2018-06-19T21:38:50.104Z,86.00
2018-06-19T21:41:18.431Z,86.30
2018-06-19T21:43:46.691Z,86.10
2018-06-19T21:46:14.955Z,86.60
2018-06-19T21:48:43.204Z,86.70
2018-06-19T21:51:11.541Z,87.00
2018-06-19T21:53:39.793Z,87.30
2018-06-19T21:56:08.076Z,87.40
2018-06-19T21:58:36.623Z,87.80
2018-06-19T22:01:04.855Z,87.50
2018-06-19T22:03:33.077Z,87.70
2018-06-19T22:06:01.309Z,87.40
2018-06-19T22:08:34.519Z,87.80
2018-06-19T22:11:02.789Z,87.70
2018-06-19T22:13:31.044Z,88.60
2018-06-19T22:15:59.326Z,88.30
2018-06-19T22:18:27.934Z,89.10
2018-06-19T22:20:56.209Z,88.40
2018-06-19T22:23:24.506Z,89.30
2018-06-19T22:25:52.845Z,88.70
2018-06-19T22:28:21.098Z,88.40
2018-06-19T22:30:49.358Z,88.40
2018-06-19T22:33:17.682Z,89.10
2018-06-19T22:38:13.939Z,89.10
2018-06-19T22:40:42.359Z,88.60
2018-06-19T22:43:10.624Z,88.90
2018-06-19T22:45:38.887Z,90.10
2018-06-19T22:48:07.153Z,90.00
2018-06-19T22:53:03.364Z,90.50
2018-06-19T22:55:31.680Z,90.70
2018-06-19T22:57:59.924Z,90.30
2018-06-19T23:00:28.193Z,90.70
2018-06-19T23:03:02.247Z,90.00
2018-06-19T23:05:30.488Z,90.10
2018-06-19T23:07:58.792Z,89.70
2018-06-19T23:10:27.646Z,90.00
2018-06-19T23:12:55.843Z,89.50
2018-06-19T23:15:24.270Z,89.70
2018-06-19T23:17:52.648Z,89.70
2018-06-19T23:20:20.872Z,89.80
2018-06-19T23:22:50.440Z,89.80
2018-06-19T23:25:18.970Z,90.00
2018-06-19T23:27:47.298Z,90.50
2018-06-19T23:30:16.435Z,90.10
2018-06-19T23:32:44.699Z,90.20
2018-06-19T23:35:13.055Z,90.20
2018-06-19T23:37:42.092Z,90.30
2018-06-19T23:40:10.366Z,90.60
2018-06-19T23:42:38.589Z,90.60
2018-06-19T23:45:06.820Z,90.70
2018-06-19T23:47:35.449Z,90.60
2018-06-19T23:50:03.725Z,90.60
2018-06-19T23:52:32.027Z,90.60
2018-06-19T23:55:00.595Z,90.70
2018-06-19T23:57:28.845Z,90.70
2018-06-19T23:59:57.074Z,90.90
